Time;durP1;ratioP1;P1;durP2;ratioP2;P2;SDS_P1;SDS_P2;PMS_P1;PMS_P2;Temp;Humidity;BMP_temperature;BMP_pressure;BME280_temperature;BME280_humidity;BME280_pressure;Samples;Min_cycle;Max_cycle;Signal;HPM_P1;HPM_P2
2022/01/24 00:01:08;;;;;;;16.65;10.30;;;;;;;;;;2239528;60;21133;-75
2022/01/24 00:03:35;;;;;;;16.80;9.40;;;;;;;;;;2240095;60;21069;-75
2022/01/24 00:06:03;;;;;;;14.43;9.18;;;;;;;;;;2240329;60;21297;-75
2022/01/24 00:08:31;;;;;;;16.17;9.02;;;;;;;;;;2240107;60;21089;-75
2022/01/24 00:11:05;;;;;;;18.50;9.77;;;;;;;;;;2240197;60;21081;-75
2022/01/24 00:14:17;;;;;;;15.68;9.43;;;;;;;;;;2240197;60;21197;-75
2022/01/24 00:17:04;;;;;;;13.55;8.32;;;;;;;;;;2240287;60;21459;-76
2022/01/24 00:27:53;;;;;;;16.85;9.88;;;;;;;;;;2240289;56;21299;-75
2022/01/24 00:30:20;;;;;;;18.27;10.88;;;;;;;;;;2240029;60;21053;-75
2022/01/24 00:32:47;;;;;;;21.45;11.70;;;;;;;;;;2342241;56;21074;-75
2022/01/24 00:35:14;;;;;;;17.15;9.90;;;;;;;;;;2240132;60;21080;-75
2022/01/24 00:37:41;;;;;;;18.52;10.57;;;;;;;;;;2240314;60;21065;-75
2022/01/24 00:40:10;;;;;;;16.92;10.13;;;;;;;;;;2239669;60;21162;-75
2022/01/24 00:42:48;;;;;;;25.30;12.40;;;;;;;;;;2242574;56;21587;-75
2022/01/24 00:45:25;;;;;;;18.12;10.65;;;;;;;;;;2240128;60;21297;-74
2022/01/24 00:48:09;;;;;;;18.65;9.73;;;;;;;;;;2239882;60;21084;-75
2022/01/24 00:53:37;;;;;;;21.20;11.48;;;;;;;;;;2240410;56;20994;-75
2022/01/24 00:56:05;;;;;;;20.77;11.40;;;;;;;;;;2240443;60;21389;-75
2022/01/24 00:58:32;;;;;;;20.10;9.98;;;;;;;;;;2240023;60;21062;-75
2022/01/24 01:00:59;;;;;;;16.85;9.75;;;;;;;;;;2344201;55;21078;-76
2022/01/24 01:03:26;;;;;;;21.58;11.05;;;;;;;;;;2239839;60;21595;-75
2022/01/24 01:06:05;;;;;;;20.02;10.93;;;;;;;;;;2240030;60;21148;-75
2022/01/24 01:19:36;;;;;;;17.30;9.75;;;;;;;;;;2239832;56;21543;-75
2022/01/24 01:22:03;;;;;;;25.12;10.70;;;;;;;;;;2239995;60;21683;-74
2022/01/24 01:24:34;;;;;;;17.48;10.15;;;;;;;;;;2239970;60;21240;-74
2022/01/24 01:27:06;;;;;;;18.50;9.48;;;;;;;;;;2240324;60;21070;-75
2022/01/24 01:29:45;;;;;;;16.58;9.90;;;;;;;;;;2239798;60;21085;-74
2022/01/24 01:32:18;;;;;;;16.08;9.80;;;;;;;;;;2240427;60;21073;-74
2022/01/24 01:35:04;;;;;;;14.75;9.23;;;;;;;;;;2240399;60;21069;-74
2022/01/24 01:57:22;;;;;;;16.62;10.07;;;;;;;;;;2464000;55;21094;-74
2022/01/24 01:59:50;;;;;;;17.33;10.35;;;;;;;;;;2239672;59;21204;-74
2022/01/24 02:02:17;;;;;;;18.60;10.05;;;;;;;;;;2239855;60;21085;-74
2022/01/24 02:04:44;;;;;;;18.30;9.40;;;;;;;;;;2239762;60;21077;-74
2022/01/24 02:07:12;;;;;;;17.15;10.23;;;;;;;;;;2239758;60;21635;-74
2022/01/24 02:09:41;;;;;;;20.23;10.27;;;;;;;;;;2239733;60;21065;-75
2022/01/24 02:12:10;;;;;;;16.65;10.90;;;;;;;;;;2240390;60;21149;-74
2022/01/24 02:14:43;;;;;;;15.02;9.57;;;;;;;;;;2239922;60;21165;-74
2022/01/24 02:17:15;;;;;;;20.15;12.27;;;;;;;;;;2240087;60;21077;-74
2022/01/24 02:20:03;;;;;;;16.30;10.60;;;;;;;;;;2239832;60;21149;-74
2022/01/24 02:22:47;;;;;;;17.50;10.32;;;;;;;;;;2240212;60;21161;-74
2022/01/24 02:25:26;;;;;;;18.00;10.20;;;;;;;;;;2240200;60;21085;-75
2022/01/24 02:27:57;;;;;;;17.70;9.90;;;;;;;;;;2239867;60;22113;-74
2022/01/24 02:30:42;;;;;;;15.82;9.98;;;;;;;;;;2239493;60;21509;-74
2022/01/24 02:33:10;;;;;;;15.48;9.77;;;;;;;;;;2240117;60;21125;-74
2022/01/24 02:35:37;;;;;;;16.05;9.10;;;;;;;;;;2240265;60;21101;-74
2022/01/24 02:38:10;;;;;;;14.38;8.98;;;;;;;;;;2240336;60;21600;-74
2022/01/24 02:40:37;;;;;;;18.12;9.50;;;;;;;;;;2240003;60;21460;-74
2022/01/24 02:48:22;;;;;;;16.98;9.63;;;;;;;;;;2239939;56;21343;-74
2022/01/24 02:51:21;;;;;;;18.15;10.35;;;;;;;;;;2239650;60;21065;-75
2022/01/24 02:53:48;;;;;;;15.13;9.95;;;;;;;;;;2240377;60;21468;-75
2022/01/24 02:56:15;;;;;;;14.80;8.43;;;;;;;;;;2240017;60;21073;-74
2022/01/24 02:58:42;;;;;;;15.05;9.45;;;;;;;;;;2399699;56;21061;-74
2022/01/24 03:01:09;;;;;;;14.30;9.00;;;;;;;;;;2239867;60;21125;-74
2022/01/24 03:03:36;;;;;;;16.37;8.82;;;;;;;;;;2404832;56;21148;-75
2022/01/24 03:06:04;;;;;;;15.25;9.05;;;;;;;;;;2240037;60;21097;-74
2022/01/24 03:08:31;;;;;;;15.80;8.38;;;;;;;;;;2239915;60;21050;-74
2022/01/24 03:10:59;;;;;;;14.05;8.88;;;;;;;;;;2239747;60;21548;-74
2022/01/24 03:13:33;;;;;;;15.20;9.10;;;;;;;;;;2239853;60;21133;-74
2022/01/24 03:16:01;;;;;;;16.98;9.77;;;;;;;;;;2240123;60;21153;-75
2022/01/24 03:18:29;;;;;;;13.95;8.88;;;;;;;;;;2239582;60;21073;-74
2022/01/24 03:20:56;;;;;;;14.10;8.35;;;;;;;;;;2239192;60;21061;-74
2022/01/24 03:23:24;;;;;;;13.48;8.40;;;;;;;;;;2239952;60;21069;-74
2022/01/24 03:25:51;;;;;;;13.73;7.87;;;;;;;;;;2447943;56;21566;-74
2022/01/24 03:28:18;;;;;;;14.15;9.25;;;;;;;;;;2240087;60;21632;-74
2022/01/24 03:30:46;;;;;;;12.20;7.90;;;;;;;;;;2239617;60;21127;-74
2022/01/24 03:33:13;;;;;;;16.37;9.43;;;;;;;;;;2240382;60;21074;-74
2022/01/24 03:35:40;;;;;;;11.98;7.50;;;;;;;;;;2240524;60;21082;-74
2022/01/24 03:38:07;;;;;;;13.65;8.60;;;;;;;;;;2240582;60;21069;-74
2022/01/24 03:40:34;;;;;;;13.70;7.87;;;;;;;;;;2239559;60;21086;-74
2022/01/24 03:43:01;;;;;;;13.60;8.02;;;;;;;;;;2374768;56;21623;-74
2022/01/24 03:45:39;;;;;;;15.50;8.63;;;;;;;;;;2240387;60;21144;-74
2022/01/24 03:48:10;;;;;;;14.48;8.45;;;;;;;;;;2414144;54;70594;-78
2022/01/24 03:50:37;;;;;;;13.75;8.55;;;;;;;;;;2563709;54;21062;-80
2022/01/24 03:53:04;;;;;;;15.95;9.55;;;;;;;;;;2321911;58;21030;-79
2022/01/24 03:55:31;;;;;;;13.68;8.75;;;;;;;;;;2322064;58;21554;-80
2022/01/24 03:57:58;;;;;;;14.07;9.25;;;;;;;;;;2562973;54;21690;-80
2022/01/24 04:00:25;;;;;;;15.68;8.80;;;;;;;;;;2320394;58;21089;-80
2022/01/24 04:02:52;;;;;;;15.82;8.85;;;;;;;;;;2562234;54;21122;-80
2022/01/24 04:05:19;;;;;;;14.18;8.88;;;;;;;;;;2320835;58;21135;-80
2022/01/24 04:07:46;;;;;;;14.82;8.82;;;;;;;;;;2320724;58;21102;-80
2022/01/24 04:10:17;;;;;;;15.60;9.68;;;;;;;;;;2562394;54;21614;-81
2022/01/24 04:12:44;;;;;;;13.93;8.80;;;;;;;;;;2562404;54;21098;-79
2022/01/24 04:15:27;;;;;;;14.18;9.15;;;;;;;;;;2320730;58;21062;-80
2022/01/24 04:18:24;;;;;;;12.63;8.07;;;;;;;;;;2322060;58;21074;-80
2022/01/24 04:23:39;;;;;;;13.10;8.15;;;;;;;;;;2321574;58;21012;-81
2022/01/24 04:26:06;;;;;;;15.52;8.80;;;;;;;;;;2563254;54;21074;-81
2022/01/24 04:28:33;;;;;;;11.07;6.93;;;;;;;;;;2321389;57;21050;-80
2022/01/24 04:31:00;;;;;;;11.05;7.57;;;;;;;;;;2562773;53;21566;-80
2022/01/24 04:33:27;;;;;;;10.95;7.25;;;;;;;;;;2563116;54;21130;-80
2022/01/24 04:35:54;;;;;;;13.73;8.65;;;;;;;;;;2562997;54;21042;-81
2022/01/24 04:38:21;;;;;;;14.02;7.60;;;;;;;;;;2323343;58;21122;-80
2022/01/24 04:40:48;;;;;;;12.82;8.38;;;;;;;;;;2565267;54;21118;-81
2022/01/24 04:43:29;;;;;;;10.75;6.78;;;;;;;;;;2563650;54;21128;-81
2022/01/24 04:46:05;;;;;;;12.63;7.47;;;;;;;;;;2321711;58;21050;-79
2022/01/24 04:51:32;;;;;;;11.80;7.35;;;;;;;;;;2321724;58;21054;-79
2022/01/24 04:59:36;;;;;;;13.10;9.32;;;;;;;;;;2330201;57;38185;-75
2022/01/24 05:02:03;;;;;;;12.37;8.10;;;;;;;;;;2346804;57;21116;-75
2022/01/24 05:04:30;;;;;;;14.27;8.70;;;;;;;;;;2347498;57;21038;-75
2022/01/24 05:06:58;;;;;;;13.43;8.70;;;;;;;;;;2347056;57;21049;-75
2022/01/24 05:09:27;;;;;;;14.02;8.63;;;;;;;;;;2346771;57;21029;-76
2022/01/24 05:11:59;;;;;;;16.20;9.38;;;;;;;;;;2347398;57;21164;-75
2022/01/24 05:25:27;;;;;;;15.85;9.88;;;;;;;;;;2347496;57;20957;-76
2022/01/24 05:27:54;;;;;;;16.45;10.23;;;;;;;;;;2593759;53;21050;-74
2022/01/24 05:30:21;;;;;;;18.02;10.32;;;;;;;;;;2347346;57;21034;-76
2022/01/24 05:32:48;;;;;;;12.57;8.13;;;;;;;;;;2347463;57;21121;-74
2022/01/24 05:35:15;;;;;;;15.25;9.02;;;;;;;;;;2347175;57;21038;-76
2022/01/24 05:37:42;;;;;;;13.95;8.93;;;;;;;;;;2346151;57;21109;-75
2022/01/24 05:40:10;;;;;;;16.52;9.70;;;;;;;;;;2346327;57;21328;-75
2022/01/24 05:42:37;;;;;;;16.90;9.68;;;;;;;;;;2346979;57;21121;-76
2022/01/24 05:45:05;;;;;;;18.48;10.48;;;;;;;;;;2346866;57;21050;-75
2022/01/24 05:47:33;;;;;;;15.38;9.32;;;;;;;;;;2347152;57;21041;-76
2022/01/24 05:50:00;;;;;;;15.60;8.90;;;;;;;;;;2347184;57;21065;-73
2022/01/24 05:52:27;;;;;;;17.33;10.02;;;;;;;;;;2347558;57;21089;-76
2022/01/24 05:54:54;;;;;;;16.73;10.70;;;;;;;;;;2347527;57;21105;-74
2022/01/24 05:57:21;;;;;;;19.20;11.77;;;;;;;;;;2347447;57;21030;-76
2022/01/24 05:59:48;;;;;;;19.35;11.15;;;;;;;;;;2346974;57;21050;-73
2022/01/24 06:02:15;;;;;;;17.27;10.20;;;;;;;;;;2347301;57;21133;-76
2022/01/24 06:04:42;;;;;;;16.90;10.07;;;;;;;;;;2346333;57;21041;-76
2022/01/24 06:07:09;;;;;;;17.75;9.63;;;;;;;;;;2347468;57;21038;-74
2022/01/24 06:09:36;;;;;;;20.50;9.98;;;;;;;;;;2346223;57;21037;-76
2022/01/24 06:12:03;;;;;;;21.25;12.00;;;;;;;;;;2346378;57;21045;-74
2022/01/24 06:14:30;;;;;;;18.17;10.48;;;;;;;;;;2346092;57;21037;-76
2022/01/24 06:16:58;;;;;;;17.15;10.57;;;;;;;;;;2346323;57;21085;-75
2022/01/24 06:19:25;;;;;;;19.33;11.07;;;;;;;;;;2345986;57;21589;-75
2022/01/24 06:21:52;;;;;;;17.42;10.50;;;;;;;;;;2346339;57;21113;-74
2022/01/24 06:24:19;;;;;;;14.75;8.27;;;;;;;;;;2346484;57;21026;-76
2022/01/24 06:26:46;;;;;;;19.65;9.95;;;;;;;;;;2346889;57;21128;-74
2022/01/24 06:29:13;;;;;;;15.80;9.60;;;;;;;;;;2593447;53;21037;-75
2022/01/24 06:31:40;;;;;;;18.95;11.35;;;;;;;;;;2346258;57;21105;-76
2022/01/24 06:34:07;;;;;;;19.55;11.27;;;;;;;;;;2346498;57;21035;-74
2022/01/24 06:36:34;;;;;;;20.73;11.68;;;;;;;;;;2346346;57;21043;-74
2022/01/24 06:39:03;;;;;;;21.12;11.55;;;;;;;;;;2345901;57;21054;-75
2022/01/24 06:41:33;;;;;;;17.80;10.80;;;;;;;;;;2346842;57;21105;-74
2022/01/24 06:44:00;;;;;;;17.58;10.73;;;;;;;;;;2346203;57;21046;-74
2022/01/24 06:46:28;;;;;;;21.55;12.32;;;;;;;;;;2346544;57;21045;-75
2022/01/24 06:48:55;;;;;;;18.35;11.07;;;;;;;;;;2345975;57;21034;-74
2022/01/24 06:51:23;;;;;;;22.60;11.77;;;;;;;;;;2346624;57;21042;-74
2022/01/24 06:53:50;;;;;;;19.90;11.38;;;;;;;;;;2346375;57;21046;-75
2022/01/24 06:56:17;;;;;;;24.05;11.98;;;;;;;;;;2346581;57;21517;-74
2022/01/24 06:58:44;;;;;;;19.98;11.57;;;;;;;;;;2346172;57;21054;-74
2022/01/24 07:01:11;;;;;;;20.62;11.73;;;;;;;;;;2346714;57;21034;-74
2022/01/24 07:03:38;;;;;;;22.23;12.07;;;;;;;;;;2346369;57;21100;-74
2022/01/24 07:06:05;;;;;;;20.60;12.07;;;;;;;;;;2346356;57;21117;-74
2022/01/24 07:08:33;;;;;;;23.38;13.00;;;;;;;;;;2346399;57;21121;-76
2022/01/24 07:11:00;;;;;;;22.98;12.65;;;;;;;;;;2346315;57;21341;-74
2022/01/24 07:13:27;;;;;;;21.30;11.25;;;;;;;;;;2346466;57;21041;-74
2022/01/24 07:15:59;;;;;;;21.83;12.37;;;;;;;;;;2346468;57;21042;-74
2022/01/24 07:21:11;;;;;;;25.02;12.68;;;;;;;;;;2346295;57;20998;-75
2022/01/24 07:23:40;;;;;;;24.20;12.25;;;;;;;;;;2346459;57;21048;-74
2022/01/24 07:26:07;;;;;;;26.08;14.05;;;;;;;;;;2346328;57;21037;-74
2022/01/24 07:28:34;;;;;;;24.30;12.25;;;;;;;;;;2346630;57;21074;-75
2022/01/24 07:31:01;;;;;;;23.87;12.35;;;;;;;;;;2346250;57;21034;-74
2022/01/24 07:33:29;;;;;;;21.20;11.52;;;;;;;;;;2346703;57;21379;-75
2022/01/24 07:35:56;;;;;;;24.33;13.18;;;;;;;;;;2318084;57;21042;-74
2022/01/24 07:38:23;;;;;;;26.95;13.43;;;;;;;;;;2346188;57;21113;-74
2022/01/24 07:40:53;;;;;;;25.30;13.23;;;;;;;;;;2346376;57;21065;-74
2022/01/24 07:43:20;;;;;;;25.58;13.05;;;;;;;;;;2346566;57;21042;-74
2022/01/24 07:45:48;;;;;;;27.37;13.48;;;;;;;;;;2346643;57;21113;-75
2022/01/24 07:48:15;;;;;;;25.85;13.45;;;;;;;;;;2346666;57;21564;-74
2022/01/24 07:50:46;;;;;;;27.13;13.35;;;;;;;;;;2345914;57;21124;-74
2022/01/24 07:53:14;;;;;;;27.65;13.38;;;;;;;;;;2346788;57;21017;-74
2022/01/24 07:55:41;;;;;;;27.83;14.25;;;;;;;;;;2346276;57;21504;-74
2022/01/24 07:58:08;;;;;;;23.08;12.68;;;;;;;;;;2344824;57;21638;-74
2022/01/24 08:00:35;;;;;;;21.35;11.68;;;;;;;;;;2345389;57;21101;-74
2022/01/24 08:03:02;;;;;;;24.42;12.40;;;;;;;;;;2345753;57;21038;-74
2022/01/24 08:05:30;;;;;;;22.23;12.10;;;;;;;;;;2346615;57;21565;-74
2022/01/24 08:07:57;;;;;;;24.17;13.18;;;;;;;;;;2346393;57;21030;-75
2022/01/24 08:10:24;;;;;;;23.62;12.00;;;;;;;;;;2346115;57;21034;-74
2022/01/24 08:12:51;;;;;;;26.45;13.13;;;;;;;;;;2346123;57;21174;-75
2022/01/24 08:15:18;;;;;;;24.85;12.88;;;;;;;;;;2346353;57;21028;-74
2022/01/24 08:17:45;;;;;;;22.08;12.07;;;;;;;;;;2346495;57;21046;-76
2022/01/24 08:20:13;;;;;;;23.95;12.63;;;;;;;;;;2345871;57;21018;-74
2022/01/24 08:22:40;;;;;;;25.60;13.15;;;;;;;;;;2346333;57;21038;-75
2022/01/24 08:25:08;;;;;;;25.95;12.93;;;;;;;;;;2346341;57;21042;-75
2022/01/24 08:27:36;;;;;;;24.85;13.77;;;;;;;;;;2593773;53;21041;-74
2022/01/24 08:30:04;;;;;;;28.33;14.07;;;;;;;;;;2345601;56;21034;-75
2022/01/24 08:32:31;;;;;;;32.10;16.48;;;;;;;;;;2593302;53;21592;-75
2022/01/24 08:34:58;;;;;;;33.78;16.42;;;;;;;;;;2346450;57;21034;-75
2022/01/24 08:37:25;;;;;;;35.58;17.58;;;;;;;;;;2346294;57;21080;-75
2022/01/24 08:39:52;;;;;;;34.25;17.58;;;;;;;;;;2345820;57;21089;-75
2022/01/24 08:42:27;;;;;;;38.42;18.33;;;;;;;;;;2346337;57;21038;-75
2022/01/24 08:47:40;;;;;;;33.83;16.90;;;;;;;;;;2346259;57;21022;-74
2022/01/24 08:50:08;;;;;;;39.10;19.50;;;;;;;;;;2345903;57;21061;-74
2022/01/24 08:52:35;;;;;;;44.28;20.50;;;;;;;;;;2346205;57;21101;-73
2022/01/24 08:55:03;;;;;;;40.55;19.95;;;;;;;;;;2346304;57;21030;-74
2022/01/24 08:57:30;;;;;;;44.45;21.90;;;;;;;;;;2345932;57;21536;-75
2022/01/24 08:59:57;;;;;;;48.53;22.20;;;;;;;;;;2346126;57;21101;-75
2022/01/24 09:02:24;;;;;;;43.53;22.30;;;;;;;;;;2346202;57;21053;-75
2022/01/24 09:04:51;;;;;;;44.58;21.60;;;;;;;;;;2346123;57;21588;-76
2022/01/24 09:07:20;;;;;;;47.40;22.13;;;;;;;;;;2346136;57;21105;-78
2022/01/24 09:09:47;;;;;;;52.97;24.92;;;;;;;;;;2345791;57;21187;-78
2022/01/24 09:12:14;;;;;;;48.10;22.40;;;;;;;;;;2593269;52;20998;-77
2022/01/24 09:14:43;;;;;;;44.42;21.92;;;;;;;;;;2346213;57;21100;-77
2022/01/24 09:17:10;;;;;;;45.08;22.87;;;;;;;;;;2346095;57;21054;-73
2022/01/24 09:19:37;;;;;;;44.03;21.55;;;;;;;;;;2345877;57;21041;-74
2022/01/24 09:22:05;;;;;;;40.97;21.23;;;;;;;;;;2345823;57;21115;-75
2022/01/24 09:24:32;;;;;;;55.10;26.90;;;;;;;;;;2345860;57;21157;-76
2022/01/24 09:26:59;;;;;;;55.28;26.50;;;;;;;;;;2346275;57;21026;-76
2022/01/24 09:29:26;;;;;;;50.12;25.30;;;;;;;;;;2346059;57;21828;-77
2022/01/24 09:31:53;;;;;;;48.08;22.48;;;;;;;;;;2346205;57;21034;-76
2022/01/24 09:34:20;;;;;;;52.72;25.58;;;;;;;;;;2346343;57;21062;-77
2022/01/24 09:36:47;;;;;;;52.90;25.90;;;;;;;;;;2345906;57;21034;-74
2022/01/24 09:39:14;;;;;;;56.67;28.23;;;;;;;;;;2345988;57;21054;-74
2022/01/24 09:41:42;;;;;;;52.15;24.90;;;;;;;;;;2345550;57;21141;-73
2022/01/24 09:44:09;;;;;;;50.12;24.17;;;;;;;;;;2345771;57;21101;-74
2022/01/24 09:46:36;;;;;;;50.08;23.70;;;;;;;;;;2346384;57;21046;-73
2022/01/24 09:49:03;;;;;;;49.30;24.27;;;;;;;;;;2535892;52;21522;-74
2022/01/24 09:51:30;;;;;;;55.55;26.25;;;;;;;;;;2362723;57;21093;-77
2022/01/24 09:53:58;;;;;;;51.85;26.45;;;;;;;;;;2362706;57;21113;-76
2022/01/24 09:56:25;;;;;;;52.65;26.67;;;;;;;;;;2614189;53;21045;-77
2022/01/24 09:58:52;;;;;;;56.33;27.13;;;;;;;;;;2614081;53;21547;-77
2022/01/24 10:01:19;;;;;;;54.70;27.10;;;;;;;;;;2614210;53;21026;-76
2022/01/24 10:04:05;;;;;;;44.75;20.62;;;;;;;;;;2363386;57;21052;-75
2022/01/24 10:06:55;;;;;;;50.72;26.25;;;;;;;;;;2614322;53;21037;-75
2022/01/24 10:09:27;;;;;;;52.40;26.00;;;;;;;;;;2362880;57;21599;-76
2022/01/24 10:12:02;;;;;;;55.00;28.12;;;;;;;;;;2614249;53;21116;-75
2022/01/24 10:17:22;;;;;;;57.13;28.00;;;;;;;;;;2362076;57;21511;-76
2022/01/24 10:19:50;;;;;;;59.13;28.25;;;;;;;;;;2362329;57;21105;-76
2022/01/24 10:22:21;;;;;;;52.00;25.52;;;;;;;;;;2362947;57;21595;-77
2022/01/24 10:24:51;;;;;;;51.85;26.73;;;;;;;;;;2362589;57;21029;-77
2022/01/24 10:27:19;;;;;;;57.22;28.90;;;;;;;;;;2363040;57;21112;-77
2022/01/24 10:29:48;;;;;;;52.97;25.98;;;;;;;;;;2613401;53;21025;-77
2022/01/24 10:32:28;;;;;;;56.85;27.50;;;;;;;;;;2363077;57;21041;-79
2022/01/24 10:34:55;;;;;;;72.57;31.73;;;;;;;;;;2362611;57;21111;-76
2022/01/24 10:37:23;;;;;;;58.55;27.92;;;;;;;;;;2362869;57;21109;-76
2022/01/24 10:39:56;;;;;;;55.25;27.83;;;;;;;;;;2362416;57;21125;-76
2022/01/24 10:45:12;;;;;;;56.05;27.35;;;;;;;;;;2612795;53;21009;-76
2022/01/24 10:47:45;;;;;;;53.87;26.23;;;;;;;;;;2362388;57;21049;-76
2022/01/24 10:50:12;;;;;;;58.25;27.10;;;;;;;;;;2362547;57;21123;-74
2022/01/24 10:52:39;;;;;;;67.10;29.50;;;;;;;;;;2362622;57;21100;-75
2022/01/24 10:55:14;;;;;;;55.20;27.42;;;;;;;;;;2362821;57;21049;-74
2022/01/24 10:57:41;;;;;;;58.00;27.60;;;;;;;;;;2362970;57;21218;-77
2022/01/24 11:00:10;;;;;;;59.97;28.23;;;;;;;;;;2361597;57;21184;-74
2022/01/24 11:02:40;;;;;;;59.47;28.25;;;;;;;;;;2611909;53;21543;-77
2022/01/24 11:05:15;;;;;;;64.10;31.55;;;;;;;;;;2361512;57;21134;-75
2022/01/24 11:07:49;;;;;;;63.05;25.73;;;;;;;;;;2363196;57;21052;-75
2022/01/24 11:10:16;;;;;;;59.05;27.40;;;;;;;;;;2362922;56;21591;-75
2022/01/24 11:12:43;;;;;;;58.72;27.50;;;;;;;;;;2363223;57;21206;-74
2022/01/24 11:15:11;;;;;;;59.90;27.10;;;;;;;;;;2363188;57;21057;-74
2022/01/24 11:17:39;;;;;;;57.13;24.90;;;;;;;;;;2363234;57;21136;-75
2022/01/24 11:20:12;;;;;;;56.45;27.08;;;;;;;;;;2362591;57;21061;-76
2022/01/24 11:22:44;;;;;;;65.62;29.25;;;;;;;;;;2614438;53;21119;-73
2022/01/24 11:25:12;;;;;;;61.47;26.87;;;;;;;;;;2362697;57;21052;-74
2022/01/24 11:27:41;;;;;;;61.10;26.62;;;;;;;;;;2363177;57;21646;-73
2022/01/24 11:30:11;;;;;;;57.10;25.90;;;;;;;;;;2362834;57;21061;-73
2022/01/24 11:32:40;;;;;;;62.70;26.45;;;;;;;;;;2363168;56;21124;-74
2022/01/24 11:35:08;;;;;;;61.78;26.90;;;;;;;;;;2363325;57;21199;-75
2022/01/24 11:37:38;;;;;;;59.55;26.85;;;;;;;;;;2613664;53;21041;-74
2022/01/24 11:40:07;;;;;;;60.50;28.42;;;;;;;;;;2613524;53;21143;-74
2022/01/24 11:42:36;;;;;;;63.67;27.37;;;;;;;;;;2363479;57;21048;-75
2022/01/24 11:45:10;;;;;;;65.95;28.95;;;;;;;;;;2363305;56;21103;-76
2022/01/24 11:47:37;;;;;;;58.42;26.67;;;;;;;;;;2363236;57;21049;-77
2022/01/24 11:50:26;;;;;;;65.10;28.15;;;;;;;;;;2377104;56;21058;-75
2022/01/24 11:52:55;;;;;;;61.95;27.15;;;;;;;;;;2380567;56;21548;-75
2022/01/24 11:55:31;;;;;;;64.30;29.48;;;;;;;;;;2380798;56;21023;-74
2022/01/24 11:58:00;;;;;;;62.42;27.15;;;;;;;;;;2380845;56;21054;-74
2022/01/24 12:00:27;;;;;;;65.45;29.17;;;;;;;;;;2380612;56;21034;-77
2022/01/24 12:02:56;;;;;;;71.00;32.17;;;;;;;;;;2380935;56;21117;-74
2022/01/24 12:05:24;;;;;;;56.53;25.48;;;;;;;;;;2378290;56;21026;-74
2022/01/24 12:07:52;;;;;;;69.47;30.17;;;;;;;;;;2379166;56;21109;-78
2022/01/24 12:10:38;;;;;;;62.22;27.90;;;;;;;;;;2378947;56;21114;-77
2022/01/24 12:13:08;;;;;;;64.28;28.75;;;;;;;;;;2380073;56;21027;-75
2022/01/24 12:15:58;;;;;;;68.62;28.25;;;;;;;;;;2380659;56;21300;-78
2022/01/24 12:18:44;;;;;;;66.12;27.35;;;;;;;;;;2378978;56;21051;-78
2022/01/24 12:21:14;;;;;;;66.72;29.33;;;;;;;;;;2380743;56;21035;-74
2022/01/24 12:23:42;;;;;;;66.10;29.35;;;;;;;;;;2380895;56;21035;-73
2022/01/24 12:26:09;;;;;;;65.30;28.62;;;;;;;;;;2380713;56;21161;-75
2022/01/24 12:28:47;;;;;;;70.25;31.17;;;;;;;;;;2380644;56;21047;-77
2022/01/24 12:31:20;;;;;;;70.30;31.05;;;;;;;;;;2381071;56;21111;-74
2022/01/24 12:33:57;;;;;;;66.65;30.52;;;;;;;;;;2379884;56;21662;-77
2022/01/24 12:36:47;;;;;;;65.62;28.17;;;;;;;;;;2380954;56;21173;-74
2022/01/24 12:39:15;;;;;;;58.58;25.35;;;;;;;;;;2380609;56;21107;-73
2022/01/24 12:41:47;;;;;;;59.97;27.08;;;;;;;;;;2380947;56;21141;-74
2022/01/24 12:47:02;;;;;;;69.47;30.73;;;;;;;;;;2380509;56;21038;-77
2022/01/24 12:49:29;;;;;;;65.80;29.45;;;;;;;;;;2380434;56;21035;-74
2022/01/24 12:51:59;;;;;;;64.78;29.42;;;;;;;;;;2380853;56;21157;-75
2022/01/24 12:54:29;;;;;;;65.85;30.67;;;;;;;;;;2381036;56;21046;-77
2022/01/24 12:56:58;;;;;;;69.30;32.80;;;;;;;;;;2635602;52;21073;-77
2022/01/24 12:59:25;;;;;;;72.35;32.53;;;;;;;;;;2380309;56;21157;-74
2022/01/24 13:01:56;;;;;;;68.95;31.20;;;;;;;;;;2380825;56;21050;-77
2022/01/24 13:04:31;;;;;;;78.25;33.67;;;;;;;;;;2380452;56;21530;-76
2022/01/24 13:06:58;;;;;;;64.80;30.00;;;;;;;;;;2380827;56;21121;-74
2022/01/24 13:09:25;;;;;;;75.82;33.45;;;;;;;;;;2380392;56;21098;-75
2022/01/24 13:11:54;;;;;;;71.45;32.33;;;;;;;;;;2380930;56;21031;-74
2022/01/24 13:14:25;;;;;;;63.28;29.27;;;;;;;;;;2380955;56;21038;-74
2022/01/24 13:22:33;;;;;;;65.50;29.90;;;;;;;;;;2379586;56;20963;-74
2022/01/24 13:25:08;;;;;;;68.97;28.83;;;;;;;;;;2381043;56;21050;-78
2022/01/24 13:27:39;;;;;;;66.82;30.10;;;;;;;;;;2380959;56;21015;-75
2022/01/24 13:30:08;;;;;;;65.35;28.90;;;;;;;;;;2380374;56;21093;-76
2022/01/24 13:32:42;;;;;;;56.92;26.83;;;;;;;;;;2635927;52;21134;-75
2022/01/24 13:35:17;;;;;;;55.75;23.50;;;;;;;;;;2379882;56;21058;-76
2022/01/24 13:37:44;;;;;;;54.03;26.37;;;;;;;;;;2635856;52;21106;-76
2022/01/24 13:40:11;;;;;;;51.88;23.75;;;;;;;;;;2380246;56;21632;-77
2022/01/24 13:42:38;;;;;;;50.60;24.70;;;;;;;;;;2380900;56;21058;-78
2022/01/24 13:45:06;;;;;;;49.67;23.92;;;;;;;;;;2379786;56;21030;-78
2022/01/24 13:47:33;;;;;;;48.97;21.85;;;;;;;;;;2380412;56;21537;-78
2022/01/24 13:50:00;;;;;;;43.85;22.02;;;;;;;;;;2380269;56;21054;-75
2022/01/24 13:52:29;;;;;;;42.50;20.90;;;;;;;;;;2635541;52;21034;-74
2022/01/24 13:55:13;;;;;;;42.95;21.08;;;;;;;;;;2635893;52;21577;-76
2022/01/24 13:57:44;;;;;;;41.85;20.67;;;;;;;;;;2635448;52;21034;-76
2022/01/24 14:00:15;;;;;;;41.65;19.05;;;;;;;;;;2380361;56;21040;-74
2022/01/24 14:02:42;;;;;;;41.25;21.05;;;;;;;;;;2376215;56;21042;-77
2022/01/24 14:05:09;;;;;;;40.50;20.80;;;;;;;;;;2378547;56;21234;-75
2022/01/24 14:07:41;;;;;;;47.25;22.37;;;;;;;;;;2378361;56;21904;-77
2022/01/24 14:10:10;;;;;;;49.92;24.20;;;;;;;;;;2378506;56;21079;-78
2022/01/24 14:12:48;;;;;;;44.22;21.33;;;;;;;;;;2634421;52;21506;-75
2022/01/24 14:15:20;;;;;;;39.20;21.85;;;;;;;;;;2380019;56;21106;-76
2022/01/24 14:18:19;;;;;;;43.28;21.23;;;;;;;;;;2380747;56;21106;-76
2022/01/24 14:20:47;;;;;;;38.75;19.10;;;;;;;;;;2379671;56;21110;-76
2022/01/24 14:23:24;;;;;;;39.17;17.90;;;;;;;;;;2380258;56;21105;-76
2022/01/24 14:25:51;;;;;;;43.22;20.92;;;;;;;;;;2380376;56;21090;-74
2022/01/24 14:28:22;;;;;;;42.47;20.92;;;;;;;;;;2380692;56;21526;-74
2022/01/24 14:30:49;;;;;;;40.47;18.48;;;;;;;;;;2379723;56;21050;-75
2022/01/24 14:33:17;;;;;;;42.22;20.65;;;;;;;;;;2380230;56;21549;-75
2022/01/24 14:35:52;;;;;;;39.38;21.75;;;;;;;;;;2379835;56;21178;-77
2022/01/24 14:38:28;;;;;;;39.50;21.05;;;;;;;;;;2380445;56;21552;-77
2022/01/24 14:40:58;;;;;;;38.50;19.37;;;;;;;;;;2379247;56;21035;-77
2022/01/24 14:46:13;;;;;;;38.00;20.08;;;;;;;;;;2380394;56;21500;-77
2022/01/24 14:48:44;;;;;;;34.40;19.12;;;;;;;;;;2635376;52;21602;-77
2022/01/24 14:51:11;;;;;;;39.88;19.52;;;;;;;;;;2635095;52;21541;-76
2022/01/24 14:53:38;;;;;;;37.70;20.05;;;;;;;;;;2379840;56;21537;-77
2022/01/24 14:56:05;;;;;;;40.08;19.45;;;;;;;;;;2380149;56;21097;-77
2022/01/24 14:58:32;;;;;;;38.97;19.12;;;;;;;;;;2635141;52;21158;-77
2022/01/24 15:00:59;;;;;;;38.88;19.90;;;;;;;;;;2378504;56;21058;-77
2022/01/24 15:03:26;;;;;;;40.55;19.37;;;;;;;;;;2635301;52;21628;-77
2022/01/24 15:05:54;;;;;;;38.92;19.15;;;;;;;;;;2380437;56;21042;-76
2022/01/24 15:08:22;;;;;;;41.13;19.33;;;;;;;;;;2379304;56;21126;-78
2022/01/24 15:10:49;;;;;;;44.22;20.12;;;;;;;;;;2634309;52;21106;-77
2022/01/24 15:13:19;;;;;;;38.72;20.75;;;;;;;;;;2378977;56;21141;-77
2022/01/24 15:15:55;;;;;;;38.30;18.90;;;;;;;;;;2380417;56;21350;-77
2022/01/24 15:24:01;;;;;;;44.72;22.55;;;;;;;;;;2380532;56;21039;-76
2022/01/24 15:26:28;;;;;;;39.70;20.12;;;;;;;;;;2379938;56;21047;-78
2022/01/24 15:28:55;;;;;;;39.35;19.12;;;;;;;;;;2379891;56;21054;-78
2022/01/24 15:31:23;;;;;;;40.08;19.75;;;;;;;;;;2379996;56;21043;-78
2022/01/24 15:33:50;;;;;;;35.25;18.50;;;;;;;;;;2380791;56;21075;-78
2022/01/24 15:36:17;;;;;;;42.90;20.90;;;;;;;;;;2380113;56;21321;-77
2022/01/24 15:38:44;;;;;;;36.38;17.90;;;;;;;;;;2380111;56;21070;-77
2022/01/24 15:41:11;;;;;;;39.20;19.85;;;;;;;;;;2379950;56;21130;-77
2022/01/24 15:43:53;;;;;;;38.90;18.95;;;;;;;;;;2380306;56;21106;-77
2022/01/24 15:49:06;;;;;;;33.58;18.77;;;;;;;;;;2480053;53;68336;-76
2022/01/24 15:51:33;;;;;;;36.30;19.55;;;;;;;;;;2319966;58;21157;-77
2022/01/24 15:54:02;;;;;;;32.85;16.58;;;;;;;;;;2320169;57;21162;-82
2022/01/24 15:59:15;;;;;;;40.38;19.77;;;;;;;;;;2348662;57;21003;-83
2022/01/24 16:01:42;;;;;;;40.80;20.08;;;;;;;;;;2609135;52;21079;-79
2022/01/24 16:04:09;;;;;;;32.17;16.12;;;;;;;;;;2359753;57;21689;-80
2022/01/24 16:06:36;;;;;;;32.05;17.10;;;;;;;;;;2359818;57;21602;-79
2022/01/24 16:09:03;;;;;;;34.03;18.77;;;;;;;;;;2609327;52;21052;-80
2022/01/24 16:11:30;;;;;;;34.53;19.20;;;;;;;;;;2359862;57;21059;-80
2022/01/24 16:13:57;;;;;;;36.70;16.62;;;;;;;;;;2610140;52;21114;-80
2022/01/24 16:16:24;;;;;;;37.03;18.73;;;;;;;;;;2610201;52;21063;-81
2022/01/24 16:18:51;;;;;;;36.17;18.62;;;;;;;;;;2609482;52;21098;-79